sensor_id;sensor_type;location;lat;lon;timestamp;temperature;humidity
4312;DHT22;2169;49.086;9.284;2023-09-18T00:00:15;22.20;57.80
4312;DHT22;2169;49.086;9.284;2023-09-18T00:02:41;22.20;57.90
4312;DHT22;2169;49.086;9.284;2023-09-18T00:05:08;22.10;57.90
4312;DHT22;2169;49.086;9.284;2023-09-18T00:07:35;22.10;58.00
4312;DHT22;2169;49.086;9.284;2023-09-18T00:10:02;22.00;58.00
4312;DHT22;2169;49.086;9.284;2023-09-18T00:12:29;22.00;58.00
4312;DHT22;2169;49.086;9.284;2023-09-18T00:14:57;22.00;58.10
4312;DHT22;2169;49.086;9.284;2023-09-18T00:17:23;22.00;58.10
4312;DHT22;2169;49.086;9.284;2023-09-18T00:19:50;22.00;58.10
4312;DHT22;2169;49.086;9.284;2023-09-18T00:22:18;22.00;58.20
4312;DHT22;2169;49.086;9.284;2023-09-18T00:24:46;21.90;58.10
4312;DHT22;2169;49.086;9.284;2023-09-18T00:27:13;21.90;58.20
4312;DHT22;2169;49.086;9.284;2023-09-18T00:29:41;21.90;58.30
4312;DHT22;2169;49.086;9.284;2023-09-18T00:32:09;21.90;58.90
4312;DHT22;2169;49.086;9.284;2023-09-18T00:34:36;21.90;58.30
4312;DHT22;2169;49.086;9.284;2023-09-18T00:37:03;21.90;58.50
4312;DHT22;2169;49.086;9.284;2023-09-18T00:39:29;21.80;58.50
4312;DHT22;2169;49.086;9.284;2023-09-18T00:41:56;21.80;58.60
4312;DHT22;2169;49.086;9.284;2023-09-18T00:44:24;21.70;58.70
4312;DHT22;2169;49.086;9.284;2023-09-18T00:46:52;21.80;58.90
4312;DHT22;2169;49.086;9.284;2023-09-18T00:49:22;21.70;58.80
4312;DHT22;2169;49.086;9.284;2023-09-18T00:51:49;21.70;58.90
4312;DHT22;2169;49.086;9.284;2023-09-18T00:54:18;21.70;58.90
4312;DHT22;2169;49.086;9.284;2023-09-18T00:56:46;21.70;58.90
4312;DHT22;2169;49.086;9.284;2023-09-18T00:59:13;21.60;58.90
4312;DHT22;2169;49.086;9.284;2023-09-18T01:01:41;21.60;59.00
4312;DHT22;2169;49.086;9.284;2023-09-18T01:04:08;21.60;59.10
4312;DHT22;2169;49.086;9.284;2023-09-18T01:06:37;21.60;59.20
4312;DHT22;2169;49.086;9.284;2023-09-18T01:09:04;21.50;59.90
4312;DHT22;2169;49.086;9.284;2023-09-18T01:11:43;21.50;59.30
4312;DHT22;2169;49.086;9.284;2023-09-18T01:14:19;21.50;59.40
4312;DHT22;2169;49.086;9.284;2023-09-18T01:16:51;21.50;59.50
4312;DHT22;2169;49.086;9.284;2023-09-18T01:19:35;21.50;59.50
4312;DHT22;2169;49.086;9.284;2023-09-18T01:22:04;21.50;59.60
4312;DHT22;2169;49.086;9.284;2023-09-18T01:24:33;21.50;59.70
4312;DHT22;2169;49.086;9.284;2023-09-18T01:27:00;21.50;59.70
4312;DHT22;2169;49.086;9.284;2023-09-18T01:29:27;21.40;59.70
4312;DHT22;2169;49.086;9.284;2023-09-18T01:31:54;21.50;59.80
4312;DHT22;2169;49.086;9.284;2023-09-18T01:34:22;21.40;59.80
4312;DHT22;2169;49.086;9.284;2023-09-18T01:36:52;21.40;59.90
4312;DHT22;2169;49.086;9.284;2023-09-18T01:39:20;21.40;60.00
4312;DHT22;2169;49.086;9.284;2023-09-18T01:41:48;21.40;60.00
4312;DHT22;2169;49.086;9.284;2023-09-18T01:44:16;21.40;60.20
4312;DHT22;2169;49.086;9.284;2023-09-18T01:46:43;21.40;60.30
4312;DHT22;2169;49.086;9.284;2023-09-18T01:49:10;21.40;60.40
4312;DHT22;2169;49.086;9.284;2023-09-18T01:51:37;21.40;60.60
4312;DHT22;2169;49.086;9.284;2023-09-18T01:54:04;21.40;60.60
4312;DHT22;2169;49.086;9.284;2023-09-18T01:56:30;21.40;60.70
4312;DHT22;2169;49.086;9.284;2023-09-18T01:58:59;21.40;60.80
4312;DHT22;2169;49.086;9.284;2023-09-18T02:01:25;21.40;60.90
4312;DHT22;2169;49.086;9.284;2023-09-18T02:03:52;21.40;61.00
4312;DHT22;2169;49.086;9.284;2023-09-18T02:06:19;21.40;61.00
4312;DHT22;2169;49.086;9.284;2023-09-18T02:08:45;21.40;61.00
4312;DHT22;2169;49.086;9.284;2023-09-18T02:11:12;21.40;61.10
4312;DHT22;2169;49.086;9.284;2023-09-18T02:13:39;21.40;61.20
4312;DHT22;2169;49.086;9.284;2023-09-18T02:16:07;21.40;61.20
4312;DHT22;2169;49.086;9.284;2023-09-18T02:18:34;21.40;61.10
4312;DHT22;2169;49.086;9.284;2023-09-18T02:21:00;21.50;61.20
4312;DHT22;2169;49.086;9.284;2023-09-18T02:23:27;21.50;61.00
4312;DHT22;2169;49.086;9.284;2023-09-18T02:25:57;21.50;60.90
4312;DHT22;2169;49.086;9.284;2023-09-18T02:28:23;21.60;61.00
4312;DHT22;2169;49.086;9.284;2023-09-18T02:30:51;21.60;61.10
4312;DHT22;2169;49.086;9.284;2023-09-18T02:33:19;21.60;61.20
4312;DHT22;2169;49.086;9.284;2023-09-18T02:35:46;21.60;61.20
4312;DHT22;2169;49.086;9.284;2023-09-18T02:38:12;21.70;61.40
4312;DHT22;2169;49.086;9.284;2023-09-18T02:40:39;21.70;61.40
4312;DHT22;2169;49.086;9.284;2023-09-18T02:43:06;21.70;61.50
4312;DHT22;2169;49.086;9.284;2023-09-18T02:45:32;21.70;62.20
4312;DHT22;2169;49.086;9.284;2023-09-18T02:47:59;21.70;61.60
4312;DHT22;2169;49.086;9.284;2023-09-18T02:50:27;21.70;61.90
4312;DHT22;2169;49.086;9.284;2023-09-18T02:52:54;21.70;62.00
4312;DHT22;2169;49.086;9.284;2023-09-18T02:55:21;21.70;62.00
4312;DHT22;2169;49.086;9.284;2023-09-18T02:57:47;21.80;62.30
4312;DHT22;2169;49.086;9.284;2023-09-18T03:00:14;21.80;62.50
4312;DHT22;2169;49.086;9.284;2023-09-18T03:02:41;21.80;62.60
4312;DHT22;2169;49.086;9.284;2023-09-18T03:05:08;21.70;62.70
4312;DHT22;2169;49.086;9.284;2023-09-18T03:07:36;21.70;63.00
4312;DHT22;2169;49.086;9.284;2023-09-18T03:10:04;21.70;63.10
4312;DHT22;2169;49.086;9.284;2023-09-18T03:12:31;21.70;63.40
4312;DHT22;2169;49.086;9.284;2023-09-18T03:14:59;21.60;63.50
4312;DHT22;2169;49.086;9.284;2023-09-18T03:17:25;21.60;63.70
4312;DHT22;2169;49.086;9.284;2023-09-18T03:19:53;21.60;63.90
4312;DHT22;2169;49.086;9.284;2023-09-18T03:22:19;21.60;64.00
4312;DHT22;2169;49.086;9.284;2023-09-18T03:24:47;21.60;64.10
4312;DHT22;2169;49.086;9.284;2023-09-18T03:27:14;21.50;64.30
4312;DHT22;2169;49.086;9.284;2023-09-18T03:29:41;21.50;64.30
4312;DHT22;2169;49.086;9.284;2023-09-18T03:32:08;21.50;64.40
4312;DHT22;2169;49.086;9.284;2023-09-18T03:34:37;21.40;64.50
4312;DHT22;2169;49.086;9.284;2023-09-18T03:37:04;21.40;64.60
4312;DHT22;2169;49.086;9.284;2023-09-18T03:39:31;21.40;64.70
4312;DHT22;2169;49.086;9.284;2023-09-18T03:41:59;21.40;64.90
4312;DHT22;2169;49.086;9.284;2023-09-18T03:44:26;21.40;65.00
4312;DHT22;2169;49.086;9.284;2023-09-18T03:46:52;21.30;65.00
4312;DHT22;2169;49.086;9.284;2023-09-18T03:49:19;21.30;65.10
4312;DHT22;2169;49.086;9.284;2023-09-18T03:51:46;21.30;65.20
4312;DHT22;2169;49.086;9.284;2023-09-18T03:54:12;21.30;65.30
4312;DHT22;2169;49.086;9.284;2023-09-18T03:56:39;21.20;65.30
4312;DHT22;2169;49.086;9.284;2023-09-18T03:59:08;21.20;65.40
4312;DHT22;2169;49.086;9.284;2023-09-18T04:01:35;21.20;65.40
4312;DHT22;2169;49.086;9.284;2023-09-18T04:04:01;21.20;65.50
4312;DHT22;2169;49.086;9.284;2023-09-18T04:06:36;21.30;65.60
4312;DHT22;2169;49.086;9.284;2023-09-18T04:09:03;21.20;65.60
4312;DHT22;2169;49.086;9.284;2023-09-18T04:11:30;21.20;65.70
4312;DHT22;2169;49.086;9.284;2023-09-18T04:13:57;21.20;65.90
4312;DHT22;2169;49.086;9.284;2023-09-18T04:16:26;21.20;65.90
4312;DHT22;2169;49.086;9.284;2023-09-18T04:18:53;21.20;66.00
4312;DHT22;2169;49.086;9.284;2023-09-18T04:21:19;21.20;66.00
4312;DHT22;2169;49.086;9.284;2023-09-18T04:23:47;21.20;66.00
4312;DHT22;2169;49.086;9.284;2023-09-18T04:26:13;21.30;66.70
4312;DHT22;2169;49.086;9.284;2023-09-18T04:28:41;21.20;65.90
4312;DHT22;2169;49.086;9.284;2023-09-18T04:31:08;21.30;66.00
4312;DHT22;2169;49.086;9.284;2023-09-18T04:33:37;21.30;66.00
4312;DHT22;2169;49.086;9.284;2023-09-18T04:36:04;21.30;66.10
4312;DHT22;2169;49.086;9.284;2023-09-18T04:38:31;21.20;66.00
4312;DHT22;2169;49.086;9.284;2023-09-18T04:40:58;21.30;66.30
4312;DHT22;2169;49.086;9.284;2023-09-18T04:43:25;21.30;66.30
4312;DHT22;2169;49.086;9.284;2023-09-18T04:45:55;21.30;66.40
4312;DHT22;2169;49.086;9.284;2023-09-18T04:48:21;21.30;66.30
4312;DHT22;2169;49.086;9.284;2023-09-18T04:50:49;21.30;66.20
4312;DHT22;2169;49.086;9.284;2023-09-18T04:53:16;21.30;66.10
4312;DHT22;2169;49.086;9.284;2023-09-18T04:55:43;21.30;66.00
4312;DHT22;2169;49.086;9.284;2023-09-18T04:58:11;21.30;66.00
4312;DHT22;2169;49.086;9.284;2023-09-18T05:00:38;21.40;66.10
4312;DHT22;2169;49.086;9.284;2023-09-18T05:03:05;21.30;66.10
4312;DHT22;2169;49.086;9.284;2023-09-18T05:05:33;21.30;66.30
4312;DHT22;2169;49.086;9.284;2023-09-18T05:08:03;21.30;66.50
4312;DHT22;2169;49.086;9.284;2023-09-18T05:10:30;21.30;66.70
4312;DHT22;2169;49.086;9.284;2023-09-18T05:12:57;21.20;66.70
4312;DHT22;2169;49.086;9.284;2023-09-18T05:15:25;21.20;67.00
4312;DHT22;2169;49.086;9.284;2023-09-18T05:17:55;21.20;67.20
4312;DHT22;2169;49.086;9.284;2023-09-18T05:20:23;21.10;67.40
4312;DHT22;2169;49.086;9.284;2023-09-18T05:22:51;21.10;67.50
4312;DHT22;2169;49.086;9.284;2023-09-18T05:25:20;21.10;67.60
4312;DHT22;2169;49.086;9.284;2023-09-18T05:27:48;21.10;67.90
4312;DHT22;2169;49.086;9.284;2023-09-18T05:30:24;21.10;68.10
4312;DHT22;2169;49.086;9.284;2023-09-18T05:32:53;21.10;68.30
4312;DHT22;2169;49.086;9.284;2023-09-18T05:35:20;21.10;68.30
4312;DHT22;2169;49.086;9.284;2023-09-18T05:37:47;21.10;68.40
4312;DHT22;2169;49.086;9.284;2023-09-18T05:40:14;21.10;68.50
4312;DHT22;2169;49.086;9.284;2023-09-18T05:42:43;21.10;68.60
4312;DHT22;2169;49.086;9.284;2023-09-18T05:45:11;21.10;68.70
4312;DHT22;2169;49.086;9.284;2023-09-18T05:47:38;21.10;68.70
4312;DHT22;2169;49.086;9.284;2023-09-18T05:50:06;21.10;68.80
4312;DHT22;2169;49.086;9.284;2023-09-18T05:52:34;21.10;68.90
4312;DHT22;2169;49.086;9.284;2023-09-18T05:55:01;21.10;68.90
4312;DHT22;2169;49.086;9.284;2023-09-18T05:57:28;21.10;69.70
4312;DHT22;2169;49.086;9.284;2023-09-18T05:59:56;21.10;69.10
4312;DHT22;2169;49.086;9.284;2023-09-18T06:02:23;21.10;69.10
4312;DHT22;2169;49.086;9.284;2023-09-18T06:04:54;21.10;69.10
4312;DHT22;2169;49.086;9.284;2023-09-18T06:07:23;21.10;69.20
4312;DHT22;2169;49.086;9.284;2023-09-18T06:09:50;21.00;69.10
4312;DHT22;2169;49.086;9.284;2023-09-18T06:12:16;21.10;69.30
4312;DHT22;2169;49.086;9.284;2023-09-18T06:14:43;21.10;69.30
4312;DHT22;2169;49.086;9.284;2023-09-18T06:17:12;21.10;69.30
4312;DHT22;2169;49.086;9.284;2023-09-18T06:19:40;21.00;69.30
4312;DHT22;2169;49.086;9.284;2023-09-18T06:22:07;21.00;69.40
4312;DHT22;2169;49.086;9.284;2023-09-18T06:24:34;21.00;69.40
4312;DHT22;2169;49.086;9.284;2023-09-18T06:27:00;21.00;69.40
4312;DHT22;2169;49.086;9.284;2023-09-18T06:29:29;21.00;69.40
4312;DHT22;2169;49.086;9.284;2023-09-18T06:31:56;21.10;69.60
4312;DHT22;2169;49.086;9.284;2023-09-18T06:34:24;21.10;69.60
4312;DHT22;2169;49.086;9.284;2023-09-18T06:36:51;21.10;69.60
4312;DHT22;2169;49.086;9.284;2023-09-18T06:39:18;21.10;69.50
4312;DHT22;2169;49.086;9.284;2023-09-18T06:41:45;21.10;69.50
4312;DHT22;2169;49.086;9.284;2023-09-18T06:44:12;21.10;69.50
4312;DHT22;2169;49.086;9.284;2023-09-18T06:46:39;21.10;69.60
4312;DHT22;2169;49.086;9.284;2023-09-18T06:49:06;21.20;69.80
4312;DHT22;2169;49.086;9.284;2023-09-18T06:51:34;21.20;69.80
4312;DHT22;2169;49.086;9.284;2023-09-18T06:54:00;21.30;69.90
4312;DHT22;2169;49.086;9.284;2023-09-18T06:56:28;21.30;69.90
4312;DHT22;2169;49.086;9.284;2023-09-18T06:58:55;21.30;69.80
4312;DHT22;2169;49.086;9.284;2023-09-18T07:01:21;21.30;69.80
4312;DHT22;2169;49.086;9.284;2023-09-18T07:03:50;21.30;69.70
4312;DHT22;2169;49.086;9.284;2023-09-18T07:06:17;21.30;69.70
4312;DHT22;2169;49.086;9.284;2023-09-18T07:08:47;21.30;69.70
4312;DHT22;2169;49.086;9.284;2023-09-18T07:11:15;21.40;69.70
4312;DHT22;2169;49.086;9.284;2023-09-18T07:13:42;21.40;69.70
4312;DHT22;2169;49.086;9.284;2023-09-18T07:16:09;21.40;69.60
4312;DHT22;2169;49.086;9.284;2023-09-18T07:18:36;21.40;69.60
4312;DHT22;2169;49.086;9.284;2023-09-18T07:21:03;21.40;69.50
4312;DHT22;2169;49.086;9.284;2023-09-18T07:23:30;21.50;69.50
4312;DHT22;2169;49.086;9.284;2023-09-18T07:25:58;21.50;69.50
4312;DHT22;2169;49.086;9.284;2023-09-18T07:28:25;21.50;69.50
4312;DHT22;2169;49.086;9.284;2023-09-18T07:30:52;21.60;69.50
4312;DHT22;2169;49.086;9.284;2023-09-18T07:33:18;21.60;69.60
4312;DHT22;2169;49.086;9.284;2023-09-18T07:35:46;21.60;69.50
4312;DHT22;2169;49.086;9.284;2023-09-18T07:38:14;21.60;69.40
4312;DHT22;2169;49.086;9.284;2023-09-18T07:40:40;21.60;69.50
4312;DHT22;2169;49.086;9.284;2023-09-18T07:43:09;21.70;69.50
4312;DHT22;2169;49.086;9.284;2023-09-18T07:45:38;21.70;69.40
4312;DHT22;2169;49.086;9.284;2023-09-18T07:48:05;21.70;69.30
4312;DHT22;2169;49.086;9.284;2023-09-18T07:50:32;21.70;69.20
4312;DHT22;2169;49.086;9.284;2023-09-18T07:52:59;21.80;69.30
4312;DHT22;2169;49.086;9.284;2023-09-18T07:55:26;21.80;69.40
4312;DHT22;2169;49.086;9.284;2023-09-18T07:57:53;21.80;69.40
4312;DHT22;2169;49.086;9.284;2023-09-18T08:00:21;21.90;69.50
4312;DHT22;2169;49.086;9.284;2023-09-18T08:02:48;21.90;69.50
4312;DHT22;2169;49.086;9.284;2023-09-18T08:05:15;22.00;69.50
4312;DHT22;2169;49.086;9.284;2023-09-18T08:07:42;22.00;69.30
4312;DHT22;2169;49.086;9.284;2023-09-18T08:10:10;22.00;69.20
4312;DHT22;2169;49.086;9.284;2023-09-18T08:12:38;22.00;69.10
4312;DHT22;2169;49.086;9.284;2023-09-18T08:15:05;22.00;69.00
4312;DHT22;2169;49.086;9.284;2023-09-18T08:17:34;22.10;69.00
4312;DHT22;2169;49.086;9.284;2023-09-18T08:20:01;22.10;69.00
4312;DHT22;2169;49.086;9.284;2023-09-18T08:22:28;22.20;69.10
4312;DHT22;2169;49.086;9.284;2023-09-18T08:24:55;22.30;69.00
4312;DHT22;2169;49.086;9.284;2023-09-18T08:27:24;22.30;68.90
4312;DHT22;2169;49.086;9.284;2023-09-18T08:29:51;22.30;68.60
4312;DHT22;2169;49.086;9.284;2023-09-18T08:32:17;22.40;68.50
4312;DHT22;2169;49.086;9.284;2023-09-18T08:34:45;22.50;68.50
4312;DHT22;2169;49.086;9.284;2023-09-18T08:37:12;22.50;68.20
4312;DHT22;2169;49.086;9.284;2023-09-18T08:39:39;22.50;68.10
4312;DHT22;2169;49.086;9.284;2023-09-18T08:42:07;22.60;68.00
4312;DHT22;2169;49.086;9.284;2023-09-18T08:44:38;22.60;67.90
4312;DHT22;2169;49.086;9.284;2023-09-18T08:47:06;22.70;67.90
4312;DHT22;2169;49.086;9.284;2023-09-18T08:49:35;22.70;67.90
4312;DHT22;2169;49.086;9.284;2023-09-18T08:52:05;22.80;67.80
4312;DHT22;2169;49.086;9.284;2023-09-18T08:54:32;22.80;67.70
4312;DHT22;2169;49.086;9.284;2023-09-18T08:56:59;22.80;67.40
4312;DHT22;2169;49.086;9.284;2023-09-18T08:59:26;22.90;67.40
4312;DHT22;2169;49.086;9.284;2023-09-18T09:01:54;22.90;67.00
4312;DHT22;2169;49.086;9.284;2023-09-18T09:04:21;22.90;66.80
4312;DHT22;2169;49.086;9.284;2023-09-18T09:06:48;23.00;66.70
4312;DHT22;2169;49.086;9.284;2023-09-18T09:09:16;23.00;66.50
4312;DHT22;2169;49.086;9.284;2023-09-18T09:11:49;23.00;66.40
4312;DHT22;2169;49.086;9.284;2023-09-18T09:14:16;23.00;66.40
4312;DHT22;2169;49.086;9.284;2023-09-18T09:16:47;23.00;66.20
4312;DHT22;2169;49.086;9.284;2023-09-18T09:19:15;22.90;66.20
4312;DHT22;2169;49.086;9.284;2023-09-18T09:21:43;22.90;66.30
4312;DHT22;2169;49.086;9.284;2023-09-18T09:24:10;22.90;66.40
4312;DHT22;2169;49.086;9.284;2023-09-18T09:26:41;22.90;66.50
4312;DHT22;2169;49.086;9.284;2023-09-18T09:29:18;22.90;66.60
4312;DHT22;2169;49.086;9.284;2023-09-18T09:31:46;22.90;66.60
4312;DHT22;2169;49.086;9.284;2023-09-18T09:34:24;22.90;66.70
4312;DHT22;2169;49.086;9.284;2023-09-18T09:36:52;22.80;66.80
4312;DHT22;2169;49.086;9.284;2023-09-18T09:39:19;22.70;66.90
4312;DHT22;2169;49.086;9.284;2023-09-18T09:41:48;22.70;67.10
4312;DHT22;2169;49.086;9.284;2023-09-18T09:44:16;22.70;67.30
4312;DHT22;2169;49.086;9.284;2023-09-18T09:46:46;22.70;67.40
4312;DHT22;2169;49.086;9.284;2023-09-18T09:49:12;22.70;67.60
4312;DHT22;2169;49.086;9.284;2023-09-18T09:51:41;22.60;67.60
4312;DHT22;2169;49.086;9.284;2023-09-18T09:54:08;22.60;67.40
4312;DHT22;2169;49.086;9.284;2023-09-18T09:56:41;22.50;67.30
4312;DHT22;2169;49.086;9.284;2023-09-18T09:59:11;22.50;67.40
4312;DHT22;2169;49.086;9.284;2023-09-18T10:01:38;22.40;67.30
4312;DHT22;2169;49.086;9.284;2023-09-18T10:04:09;22.30;67.30
4312;DHT22;2169;49.086;9.284;2023-09-18T10:06:38;22.30;67.60
4312;DHT22;2169;49.086;9.284;2023-09-18T10:09:07;22.20;67.70
4312;DHT22;2169;49.086;9.284;2023-09-18T10:11:40;22.20;67.80
4312;DHT22;2169;49.086;9.284;2023-09-18T10:14:12;22.20;67.90
4312;DHT22;2169;49.086;9.284;2023-09-18T10:16:41;22.20;68.10
4312;DHT22;2169;49.086;9.284;2023-09-18T10:19:17;22.20;68.00
4312;DHT22;2169;49.086;9.284;2023-09-18T10:21:53;22.20;68.00
4312;DHT22;2169;49.086;9.284;2023-09-18T10:24:28;22.20;68.10
4312;DHT22;2169;49.086;9.284;2023-09-18T10:26:57;22.20;68.20
4312;DHT22;2169;49.086;9.284;2023-09-18T10:29:26;22.20;68.10
4312;DHT22;2169;49.086;9.284;2023-09-18T10:31:53;22.20;68.10
4312;DHT22;2169;49.086;9.284;2023-09-18T10:34:23;22.20;68.20
4312;DHT22;2169;49.086;9.284;2023-09-18T10:36:51;22.10;68.20
4312;DHT22;2169;49.086;9.284;2023-09-18T10:39:18;22.10;68.40
4312;DHT22;2169;49.086;9.284;2023-09-18T10:41:51;22.10;68.60
4312;DHT22;2169;49.086;9.284;2023-09-18T10:44:18;22.10;68.70
4312;DHT22;2169;49.086;9.284;2023-09-18T10:46:47;22.10;68.70
4312;DHT22;2169;49.086;9.284;2023-09-18T10:49:14;22.10;68.60
4312;DHT22;2169;49.086;9.284;2023-09-18T10:51:41;22.10;68.60
4312;DHT22;2169;49.086;9.284;2023-09-18T10:54:09;22.00;68.40
4312;DHT22;2169;49.086;9.284;2023-09-18T10:56:36;22.00;68.40
4312;DHT22;2169;49.086;9.284;2023-09-18T10:59:06;22.00;68.40
4312;DHT22;2169;49.086;9.284;2023-09-18T11:01:34;21.90;68.50
4312;DHT22;2169;49.086;9.284;2023-09-18T11:04:04;21.90;68.50
4312;DHT22;2169;49.086;9.284;2023-09-18T11:07:00;21.90;68.60
4312;DHT22;2169;49.086;9.284;2023-09-18T11:09:30;22.00;68.70
4312;DHT22;2169;49.086;9.284;2023-09-18T11:12:03;21.90;68.70
4312;DHT22;2169;49.086;9.284;2023-09-18T11:14:42;22.00;68.80
4312;DHT22;2169;49.086;9.284;2023-09-18T11:17:27;22.00;68.80
4312;DHT22;2169;49.086;9.284;2023-09-18T11:20:03;22.00;68.80
4312;DHT22;2169;49.086;9.284;2023-09-18T11:22:31;22.00;68.80
4312;DHT22;2169;49.086;9.284;2023-09-18T11:25:29;22.00;68.70
4312;DHT22;2169;49.086;9.284;2023-09-18T11:27:57;22.00;68.70
4312;DHT22;2169;49.086;9.284;2023-09-18T11:30:23;22.00;68.70
4312;DHT22;2169;49.086;9.284;2023-09-18T11:32:51;22.00;68.70
4312;DHT22;2169;49.086;9.284;2023-09-18T11:35:19;22.00;68.60
4312;DHT22;2169;49.086;9.284;2023-09-18T11:37:47;22.00;68.50
4312;DHT22;2169;49.086;9.284;2023-09-18T11:40:30;22.00;68.50
4312;DHT22;2169;49.086;9.284;2023-09-18T11:43:18;22.00;68.30
4312;DHT22;2169;49.086;9.284;2023-09-18T11:45:49;22.00;68.30
4312;DHT22;2169;49.086;9.284;2023-09-18T11:48:17;22.00;68.30
4312;DHT22;2169;49.086;9.284;2023-09-18T11:50:47;22.00;68.30
4312;DHT22;2169;49.086;9.284;2023-09-18T11:53:16;22.00;68.30
4312;DHT22;2169;49.086;9.284;2023-09-18T11:55:44;22.00;68.30
4312;DHT22;2169;49.086;9.284;2023-09-18T11:58:11;22.00;68.10
4312;DHT22;2169;49.086;9.284;2023-09-18T12:00:39;22.00;68.00
4312;DHT22;2169;49.086;9.284;2023-09-18T12:03:18;22.00;67.90
4312;DHT22;2169;49.086;9.284;2023-09-18T12:05:54;22.00;67.90
4312;DHT22;2169;49.086;9.284;2023-09-18T12:08:23;22.00;67.70
4312;DHT22;2169;49.086;9.284;2023-09-18T12:10:51;22.00;67.70
4312;DHT22;2169;49.086;9.284;2023-09-18T12:13:18;22.00;67.60
4312;DHT22;2169;49.086;9.284;2023-09-18T12:15:45;22.00;67.30
4312;DHT22;2169;49.086;9.284;2023-09-18T12:18:14;22.00;67.90
4312;DHT22;2169;49.086;9.284;2023-09-18T12:20:45;22.00;67.20
4312;DHT22;2169;49.086;9.284;2023-09-18T12:23:14;22.00;67.20
4312;DHT22;2169;49.086;9.284;2023-09-18T12:25:41;22.00;67.20
4312;DHT22;2169;49.086;9.284;2023-09-18T12:28:08;22.00;67.30
4312;DHT22;2169;49.086;9.284;2023-09-18T12:30:35;22.10;67.40
4312;DHT22;2169;49.086;9.284;2023-09-18T12:33:02;22.10;67.20
4312;DHT22;2169;49.086;9.284;2023-09-18T12:35:29;22.10;67.00
4312;DHT22;2169;49.086;9.284;2023-09-18T12:37:57;22.10;66.90
4312;DHT22;2169;49.086;9.284;2023-09-18T12:40:26;22.10;66.90
4312;DHT22;2169;49.086;9.284;2023-09-18T12:42:55;22.10;66.80
4312;DHT22;2169;49.086;9.284;2023-09-18T12:45:22;22.20;66.80
4312;DHT22;2169;49.086;9.284;2023-09-18T12:47:50;22.20;66.70
4312;DHT22;2169;49.086;9.284;2023-09-18T12:50:17;22.20;66.60
4312;DHT22;2169;49.086;9.284;2023-09-18T12:52:44;22.20;66.50
4312;DHT22;2169;49.086;9.284;2023-09-18T12:55:22;22.20;66.30
4312;DHT22;2169;49.086;9.284;2023-09-18T12:57:54;22.20;66.20
4312;DHT22;2169;49.086;9.284;2023-09-18T13:00:22;22.20;66.10
4312;DHT22;2169;49.086;9.284;2023-09-18T13:02:53;22.20;66.00
4312;DHT22;2169;49.086;9.284;2023-09-18T13:05:21;22.20;66.00
4312;DHT22;2169;49.086;9.284;2023-09-18T13:07:52;22.30;66.10
4312;DHT22;2169;49.086;9.284;2023-09-18T13:10:20;22.30;65.90
4312;DHT22;2169;49.086;9.284;2023-09-18T13:12:49;22.30;65.90
4312;DHT22;2169;49.086;9.284;2023-09-18T13:15:30;22.30;65.80
4312;DHT22;2169;49.086;9.284;2023-09-18T13:17:58;22.40;65.80
4312;DHT22;2169;49.086;9.284;2023-09-18T13:20:27;22.50;65.80
4312;DHT22;2169;49.086;9.284;2023-09-18T13:22:55;22.50;65.50
4312;DHT22;2169;49.086;9.284;2023-09-18T13:25:27;22.50;65.40
4312;DHT22;2169;49.086;9.284;2023-09-18T13:27:55;22.50;65.30
4312;DHT22;2169;49.086;9.284;2023-09-18T13:30:25;22.60;65.30
4312;DHT22;2169;49.086;9.284;2023-09-18T13:33:02;22.60;65.10
4312;DHT22;2169;49.086;9.284;2023-09-18T13:35:29;22.60;65.00
4312;DHT22;2169;49.086;9.284;2023-09-18T13:37:56;22.60;64.90
4312;DHT22;2169;49.086;9.284;2023-09-18T13:40:25;22.70;64.70
4312;DHT22;2169;49.086;9.284;2023-09-18T13:42:53;22.70;64.60
4312;DHT22;2169;49.086;9.284;2023-09-18T13:45:20;22.70;64.50
4312;DHT22;2169;49.086;9.284;2023-09-18T13:47:47;22.80;64.40
4312;DHT22;2169;49.086;9.284;2023-09-18T13:50:17;22.80;64.10
4312;DHT22;2169;49.086;9.284;2023-09-18T13:52:44;22.80;63.90
4312;DHT22;2169;49.086;9.284;2023-09-18T13:55:11;22.80;63.90
4312;DHT22;2169;49.086;9.284;2023-09-18T13:57:38;22.90;64.00
4312;DHT22;2169;49.086;9.284;2023-09-18T14:00:07;22.90;64.00
4312;DHT22;2169;49.086;9.284;2023-09-18T14:02:36;23.00;63.90
4312;DHT22;2169;49.086;9.284;2023-09-18T14:05:04;23.00;63.80
4312;DHT22;2169;49.086;9.284;2023-09-18T14:07:32;23.10;63.70
4312;DHT22;2169;49.086;9.284;2023-09-18T14:09:59;23.10;63.60
4312;DHT22;2169;49.086;9.284;2023-09-18T14:12:29;23.10;63.40
4312;DHT22;2169;49.086;9.284;2023-09-18T14:14:57;23.20;63.40
4312;DHT22;2169;49.086;9.284;2023-09-18T14:17:25;23.20;63.30
4312;DHT22;2169;49.086;9.284;2023-09-18T14:19:52;23.30;63.30
4312;DHT22;2169;49.086;9.284;2023-09-18T14:22:19;23.30;63.00
4312;DHT22;2169;49.086;9.284;2023-09-18T14:24:47;23.30;62.90
4312;DHT22;2169;49.086;9.284;2023-09-18T14:27:14;23.30;62.70
4312;DHT22;2169;49.086;9.284;2023-09-18T14:29:41;23.30;62.70
4312;DHT22;2169;49.086;9.284;2023-09-18T14:32:09;23.30;62.70
4312;DHT22;2169;49.086;9.284;2023-09-18T14:34:37;23.30;62.60
4312;DHT22;2169;49.086;9.284;2023-09-18T14:37:04;23.40;62.80
4312;DHT22;2169;49.086;9.284;2023-09-18T14:39:31;23.40;62.70
4312;DHT22;2169;49.086;9.284;2023-09-18T14:42:00;23.40;62.70
4312;DHT22;2169;49.086;9.284;2023-09-18T14:44:27;23.50;62.70
4312;DHT22;2169;49.086;9.284;2023-09-18T14:46:54;23.50;62.40
4312;DHT22;2169;49.086;9.284;2023-09-18T14:49:21;23.60;62.40
4312;DHT22;2169;49.086;9.284;2023-09-18T14:51:48;23.60;62.30
4312;DHT22;2169;49.086;9.284;2023-09-18T14:54:18;23.60;62.20
4312;DHT22;2169;49.086;9.284;2023-09-18T14:56:45;23.70;62.10
4312;DHT22;2169;49.086;9.284;2023-09-18T14:59:13;23.70;61.90
4312;DHT22;2169;49.086;9.284;2023-09-18T15:01:41;23.80;61.90
4312;DHT22;2169;49.086;9.284;2023-09-18T15:04:09;23.80;61.70
4312;DHT22;2169;49.086;9.284;2023-09-18T15:06:36;23.90;61.50
4312;DHT22;2169;49.086;9.284;2023-09-18T15:09:03;23.90;61.30
4312;DHT22;2169;49.086;9.284;2023-09-18T15:11:32;23.90;61.10
4312;DHT22;2169;49.086;9.284;2023-09-18T15:14:00;23.90;60.90
4312;DHT22;2169;49.086;9.284;2023-09-18T15:16:28;23.90;60.80
4312;DHT22;2169;49.086;9.284;2023-09-18T15:18:56;24.00;60.70
4312;DHT22;2169;49.086;9.284;2023-09-18T15:21:26;24.00;60.40
4312;DHT22;2169;49.086;9.284;2023-09-18T15:23:54;24.00;60.30
4312;DHT22;2169;49.086;9.284;2023-09-18T15:26:21;24.10;60.10
4312;DHT22;2169;49.086;9.284;2023-09-18T15:28:49;24.10;59.90
4312;DHT22;2169;49.086;9.284;2023-09-18T15:31:16;24.10;59.70
4312;DHT22;2169;49.086;9.284;2023-09-18T15:33:44;24.10;59.40
4312;DHT22;2169;49.086;9.284;2023-09-18T15:36:11;24.10;59.30
4312;DHT22;2169;49.086;9.284;2023-09-18T15:38:38;24.10;58.90
4312;DHT22;2169;49.086;9.284;2023-09-18T15:41:06;24.10;58.80
4312;DHT22;2169;49.086;9.284;2023-09-18T15:43:33;24.20;59.00
4312;DHT22;2169;49.086;9.284;2023-09-18T15:46:00;24.20;58.80
4312;DHT22;2169;49.086;9.284;2023-09-18T15:48:28;24.30;58.80
4312;DHT22;2169;49.086;9.284;2023-09-18T15:50:56;24.30;58.70
4312;DHT22;2169;49.086;9.284;2023-09-18T15:53:24;24.30;58.40
4312;DHT22;2169;49.086;9.284;2023-09-18T15:55:51;24.30;58.00
4312;DHT22;2169;49.086;9.284;2023-09-18T15:58:18;24.30;58.00
4312;DHT22;2169;49.086;9.284;2023-09-18T16:00:46;24.30;57.70
4312;DHT22;2169;49.086;9.284;2023-09-18T16:03:14;24.40;57.70
4312;DHT22;2169;49.086;9.284;2023-09-18T16:05:41;24.40;57.80
4312;DHT22;2169;49.086;9.284;2023-09-18T16:08:11;24.40;57.50